sensor_id;sensor_type;location;lat;lon;timestamp;P1;durP1;ratioP1;P2;durP2;ratioP2
1024;SDS011;501;48.214;11.350;2023-05-07T00:01:48;11.87;;;10.47;;
1024;SDS011;501;48.214;11.350;2023-05-07T00:04:14;11.23;;;9.53;;
1024;SDS011;501;48.214;11.350;2023-05-07T00:06:39;15.30;;;10.40;;
1024;SDS011;501;48.214;11.350;2023-05-07T00:09:05;11.63;;;10.43;;
1024;SDS011;501;48.214;11.350;2023-05-07T00:11:31;11.67;;;10.57;;
1024;SDS011;501;48.214;11.350;2023-05-07T00:13:58;10.27;;;9.10;;
1024;SDS011;501;48.214;11.350;2023-05-07T00:16:24;14.30;;;11.30;;
1024;SDS011;501;48.214;11.350;2023-05-07T00:18:49;10.67;;;9.57;;
1024;SDS011;501;48.214;11.350;2023-05-07T00:21:15;10.87;;;9.83;;
1024;SDS011;501;48.214;11.350;2023-05-07T00:23:41;12.93;;;10.27;;
1024;SDS011;501;48.214;11.350;2023-05-07T00:26:06;11.33;;;10.03;;
1024;SDS011;501;48.214;11.350;2023-05-07T00:28:32;11.27;;;10.17;;
1024;SDS011;501;48.214;11.350;2023-05-07T00:30:58;15.30;;;10.47;;
1024;SDS011;501;48.214;11.350;2023-05-07T00:33:23;13.37;;;11.43;;
1024;SDS011;501;48.214;11.350;2023-05-07T00:35:51;14.03;;;11.67;;
1024;SDS011;501;48.214;11.350;2023-05-07T00:38:17;12.00;;;10.80;;
1024;SDS011;501;48.214;11.350;2023-05-07T00:40:42;14.60;;;10.90;;
1024;SDS011;501;48.214;11.350;2023-05-07T00:43:08;12.83;;;11.53;;
1024;SDS011;501;48.214;11.350;2023-05-07T00:45:33;11.63;;;10.53;;
1024;SDS011;501;48.214;11.350;2023-05-07T00:47:59;12.07;;;10.87;;
1024;SDS011;501;48.214;11.350;2023-05-07T00:50:29;15.00;;;10.10;;
1024;SDS011;501;48.214;11.350;2023-05-07T00:52:55;13.60;;;10.53;;
1024;SDS011;501;48.214;11.350;2023-05-07T00:55:21;15.27;;;9.90;;
1024;SDS011;501;48.214;11.350;2023-05-07T00:57:48;16.73;;;10.80;;
1024;SDS011;501;48.214;11.350;2023-05-07T01:00:15;11.93;;;10.47;;
1024;SDS011;501;48.214;11.350;2023-05-07T01:02:41;11.37;;;10.17;;
1024;SDS011;501;48.214;11.350;2023-05-07T01:05:09;12.90;;;11.37;;
1024;SDS011;501;48.214;11.350;2023-05-07T01:07:37;12.13;;;10.83;;
1024;SDS011;501;48.214;11.350;2023-05-07T01:10:05;12.60;;;11.40;;
1024;SDS011;501;48.214;11.350;2023-05-07T01:12:32;15.40;;;11.70;;
1024;SDS011;501;48.214;11.350;2023-05-07T01:14:59;13.30;;;11.73;;
1024;SDS011;501;48.214;11.350;2023-05-07T01:17:25;13.67;;;11.70;;
1024;SDS011;501;48.214;11.350;2023-05-07T01:19:51;13.00;;;11.30;;
1024;SDS011;501;48.214;11.350;2023-05-07T01:22:25;15.83;;;10.53;;
1024;SDS011;501;48.214;11.350;2023-05-07T01:24:59;13.50;;;10.77;;
1024;SDS011;501;48.214;11.350;2023-05-07T01:27:26;12.97;;;11.60;;
1024;SDS011;501;48.214;11.350;2023-05-07T01:29:52;12.83;;;11.50;;
1024;SDS011;501;48.214;11.350;2023-05-07T01:32:23;13.20;;;10.60;;
1024;SDS011;501;48.214;11.350;2023-05-07T01:34:56;12.77;;;11.30;;
1024;SDS011;501;48.214;11.350;2023-05-07T01:37:23;11.87;;;10.70;;
1024;SDS011;501;48.214;11.350;2023-05-07T01:39:50;12.77;;;11.47;;
1024;SDS011;501;48.214;11.350;2023-05-07T01:42:17;14.13;;;11.37;;
1024;SDS011;501;48.214;11.350;2023-05-07T01:44:42;13.37;;;11.47;;
1024;SDS011;501;48.214;11.350;2023-05-07T01:47:08;11.73;;;10.53;;
1024;SDS011;501;48.214;11.350;2023-05-07T01:49:34;15.60;;;11.07;;
1024;SDS011;501;48.214;11.350;2023-05-07T01:51:59;12.20;;;10.90;;
1024;SDS011;501;48.214;11.350;2023-05-07T01:54:26;12.50;;;11.10;;
1024;SDS011;501;48.214;11.350;2023-05-07T01:56:58;12.40;;;10.50;;
1024;SDS011;501;48.214;11.350;2023-05-07T01:59:24;14.13;;;10.90;;
1024;SDS011;501;48.214;11.350;2023-05-07T02:01:50;11.80;;;10.50;;
1024;SDS011;501;48.214;11.350;2023-05-07T02:04:16;11.00;;;9.87;;
1024;SDS011;501;48.214;11.350;2023-05-07T02:06:42;12.40;;;10.60;;
1024;SDS011;501;48.214;11.350;2023-05-07T02:09:08;10.43;;;9.33;;
1024;SDS011;501;48.214;11.350;2023-05-07T02:11:34;12.20;;;11.00;;
1024;SDS011;501;48.214;11.350;2023-05-07T02:14:00;11.37;;;10.10;;
1024;SDS011;501;48.214;11.350;2023-05-07T02:16:25;11.53;;;10.40;;
1024;SDS011;501;48.214;11.350;2023-05-07T02:18:51;12.10;;;10.57;;
1024;SDS011;501;48.214;11.350;2023-05-07T02:21:17;11.90;;;9.40;;
1024;SDS011;501;48.214;11.350;2023-05-07T02:23:42;10.63;;;9.63;;
1024;SDS011;501;48.214;11.350;2023-05-07T02:26:08;11.70;;;10.53;;
1024;SDS011;501;48.214;11.350;2023-05-07T02:28:34;11.37;;;10.10;;
1024;SDS011;501;48.214;11.350;2023-05-07T02:31:02;11.00;;;9.90;;
1024;SDS011;501;48.214;11.350;2023-05-07T02:33:30;9.63;;;8.73;;
1024;SDS011;501;48.214;11.350;2023-05-07T02:35:56;14.50;;;11.53;;
1024;SDS011;501;48.214;11.350;2023-05-07T02:38:22;10.20;;;9.13;;
1024;SDS011;501;48.214;11.350;2023-05-07T02:40:48;12.10;;;10.60;;
1024;SDS011;501;48.214;11.350;2023-05-07T02:43:14;10.57;;;9.47;;
1024;SDS011;501;48.214;11.350;2023-05-07T02:45:39;11.40;;;10.20;;
1024;SDS011;501;48.214;11.350;2023-05-07T02:48:05;10.73;;;9.57;;
1024;SDS011;501;48.214;11.350;2023-05-07T02:50:31;12.63;;;10.67;;
1024;SDS011;501;48.214;11.350;2023-05-07T02:52:57;10.10;;;9.20;;
1024;SDS011;501;48.214;11.350;2023-05-07T02:55:23;10.30;;;9.20;;
1024;SDS011;501;48.214;11.350;2023-05-07T02:57:49;11.80;;;10.60;;
1024;SDS011;501;48.214;11.350;2023-05-07T03:00:16;11.30;;;9.77;;
1024;SDS011;501;48.214;11.350;2023-05-07T03:02:43;11.50;;;10.30;;
1024;SDS011;501;48.214;11.350;2023-05-07T03:05:09;10.40;;;9.33;;
1024;SDS011;501;48.214;11.350;2023-05-07T03:07:36;13.53;;;10.10;;
1024;SDS011;501;48.214;11.350;2023-05-07T03:10:02;11.87;;;10.63;;
1024;SDS011;501;48.214;11.350;2023-05-07T03:12:28;10.90;;;9.70;;
1024;SDS011;501;48.214;11.350;2023-05-07T03:14:55;9.73;;;8.80;;
1024;SDS011;501;48.214;11.350;2023-05-07T03:17:21;12.13;;;9.67;;
1024;SDS011;501;48.214;11.350;2023-05-07T03:19:46;11.43;;;9.50;;
1024;SDS011;501;48.214;11.350;2023-05-07T03:22:12;10.27;;;9.23;;
1024;SDS011;501;48.214;11.350;2023-05-07T03:24:38;10.37;;;9.27;;
1024;SDS011;501;48.214;11.350;2023-05-07T03:27:03;10.17;;;9.17;;
1024;SDS011;501;48.214;11.350;2023-05-07T03:29:29;10.00;;;9.00;;
1024;SDS011;501;48.214;11.350;2023-05-07T03:31:54;9.87;;;8.37;;
1024;SDS011;501;48.214;11.350;2023-05-07T03:34:20;9.13;;;8.23;;
1024;SDS011;501;48.214;11.350;2023-05-07T03:36:50;11.40;;;9.97;;
1024;SDS011;501;48.214;11.350;2023-05-07T03:39:16;8.53;;;7.73;;
1024;SDS011;501;48.214;11.350;2023-05-07T03:41:42;9.20;;;8.30;;
1024;SDS011;501;48.214;11.350;2023-05-07T03:44:07;8.70;;;7.80;;
1024;SDS011;501;48.214;11.350;2023-05-07T03:46:33;9.63;;;8.67;;
1024;SDS011;501;48.214;11.350;2023-05-07T03:48:59;9.07;;;8.17;;
1024;SDS011;501;48.214;11.350;2023-05-07T03:51:25;9.50;;;8.13;;
1024;SDS011;501;48.214;11.350;2023-05-07T03:53:51;9.33;;;8.33;;
1024;SDS011;501;48.214;11.350;2023-05-07T03:56:22;8.90;;;8.00;;
1024;SDS011;501;48.214;11.350;2023-05-07T03:58:51;9.83;;;8.83;;
1024;SDS011;501;48.214;11.350;2023-05-07T04:01:17;8.37;;;7.57;;
1024;SDS011;501;48.214;11.350;2023-05-07T04:03:42;10.87;;;9.20;;
1024;SDS011;501;48.214;11.350;2023-05-07T04:06:08;9.10;;;8.20;;
1024;SDS011;501;48.214;11.350;2023-05-07T04:08:34;9.93;;;8.90;;
1024;SDS011;501;48.214;11.350;2023-05-07T04:10:59;10.73;;;8.10;;
1024;SDS011;501;48.214;11.350;2023-05-07T04:13:25;9.53;;;8.63;;
1024;SDS011;501;48.214;11.350;2023-05-07T04:15:51;9.90;;;8.93;;
1024;SDS011;501;48.214;11.350;2023-05-07T04:18:17;9.43;;;8.43;;
1024;SDS011;501;48.214;11.350;2023-05-07T04:20:43;9.07;;;8.37;;
1024;SDS011;501;48.214;11.350;2023-05-07T04:23:08;10.37;;;9.37;;
1024;SDS011;501;48.214;11.350;2023-05-07T04:25:34;11.03;;;9.10;;
1024;SDS011;501;48.214;11.350;2023-05-07T04:28:00;11.03;;;8.60;;
1024;SDS011;501;48.214;11.350;2023-05-07T04:30:25;10.73;;;9.50;;
1024;SDS011;501;48.214;11.350;2023-05-07T04:32:51;11.47;;;9.67;;
1024;SDS011;501;48.214;11.350;2023-05-07T04:35:18;10.87;;;9.40;;
1024;SDS011;501;48.214;11.350;2023-05-07T04:37:44;10.40;;;9.43;;
1024;SDS011;501;48.214;11.350;2023-05-07T04:40:09;9.80;;;8.40;;
1024;SDS011;501;48.214;11.350;2023-05-07T04:42:35;9.40;;;8.47;;
1024;SDS011;501;48.214;11.350;2023-05-07T04:45:01;10.17;;;9.07;;
1024;SDS011;501;48.214;11.350;2023-05-07T04:47:27;9.77;;;8.87;;
1024;SDS011;501;48.214;11.350;2023-05-07T04:49:53;9.20;;;8.17;;
1024;SDS011;501;48.214;11.350;2023-05-07T04:52:18;9.90;;;8.50;;
1024;SDS011;501;48.214;11.350;2023-05-07T04:54:44;9.53;;;8.63;;
1024;SDS011;501;48.214;11.350;2023-05-07T04:57:09;9.40;;;8.47;;
1024;SDS011;501;48.214;11.350;2023-05-07T04:59:35;8.90;;;8.10;;
1024;SDS011;501;48.214;11.350;2023-05-07T05:02:01;10.33;;;8.63;;
1024;SDS011;501;48.214;11.350;2023-05-07T05:04:26;11.17;;;9.37;;
1024;SDS011;501;48.214;11.350;2023-05-07T05:06:52;11.97;;;9.80;;
1024;SDS011;501;48.214;11.350;2023-05-07T05:09:18;12.43;;;10.30;;
1024;SDS011;501;48.214;11.350;2023-05-07T05:11:43;12.90;;;10.13;;
1024;SDS011;501;48.214;11.350;2023-05-07T05:14:09;10.23;;;9.23;;
1024;SDS011;501;48.214;11.350;2023-05-07T05:16:35;12.13;;;10.37;;
1024;SDS011;501;48.214;11.350;2023-05-07T05:19:01;11.03;;;9.80;;
1024;SDS011;501;48.214;11.350;2023-05-07T05:21:27;11.93;;;10.63;;
1024;SDS011;501;48.214;11.350;2023-05-07T05:23:52;12.90;;;11.53;;
1024;SDS011;501;48.214;11.350;2023-05-07T05:26:18;10.53;;;9.50;;
1024;SDS011;501;48.214;11.350;2023-05-07T05:28:43;15.23;;;9.50;;
1024;SDS011;501;48.214;11.350;2023-05-07T05:31:09;11.00;;;9.90;;
1024;SDS011;501;48.214;11.350;2023-05-07T05:33:35;12.57;;;11.33;;
1024;SDS011;501;48.214;11.350;2023-05-07T05:36:01;11.03;;;9.60;;
1024;SDS011;501;48.214;11.350;2023-05-07T05:38:26;9.47;;;8.57;;
1024;SDS011;501;48.214;11.350;2023-05-07T05:40:52;10.47;;;9.37;;
1024;SDS011;501;48.214;11.350;2023-05-07T05:43:18;10.00;;;9.00;;
1024;SDS011;501;48.214;11.350;2023-05-07T05:45:43;10.93;;;9.50;;
1024;SDS011;501;48.214;11.350;2023-05-07T05:48:09;11.30;;;10.17;;
1024;SDS011;501;48.214;11.350;2023-05-07T05:50:34;11.70;;;10.50;;
1024;SDS011;501;48.214;11.350;2023-05-07T05:53:03;16.20;;;11.43;;
1024;SDS011;501;48.214;11.350;2023-05-07T05:55:29;11.10;;;9.90;;
1024;SDS011;501;48.214;11.350;2023-05-07T05:57:57;12.30;;;11.20;;
1024;SDS011;501;48.214;11.350;2023-05-07T06:00:23;11.50;;;9.97;;
1024;SDS011;501;48.214;11.350;2023-05-07T06:02:49;11.33;;;9.27;;
1024;SDS011;501;48.214;11.350;2023-05-07T06:05:14;11.60;;;10.23;;
1024;SDS011;501;48.214;11.350;2023-05-07T06:07:40;12.70;;;10.30;;
1024;SDS011;501;48.214;11.350;2023-05-07T06:10:06;12.23;;;10.97;;
1024;SDS011;501;48.214;11.350;2023-05-07T06:12:32;15.37;;;12.40;;
1024;SDS011;501;48.214;11.350;2023-05-07T06:14:58;12.70;;;11.13;;
1024;SDS011;501;48.214;11.350;2023-05-07T06:17:23;12.83;;;11.50;;
1024;SDS011;501;48.214;11.350;2023-05-07T06:19:49;13.97;;;10.87;;
1024;SDS011;501;48.214;11.350;2023-05-07T06:22:14;13.27;;;11.97;;
1024;SDS011;501;48.214;11.350;2023-05-07T06:24:40;12.80;;;11.57;;
1024;SDS011;501;48.214;11.350;2023-05-07T06:27:06;15.30;;;11.70;;
1024;SDS011;501;48.214;11.350;2023-05-07T06:29:31;13.73;;;12.33;;
1024;SDS011;501;48.214;11.350;2023-05-07T06:32:07;13.83;;;12.40;;
1024;SDS011;501;48.214;11.350;2023-05-07T06:34:34;20.70;;;13.00;;
1024;SDS011;501;48.214;11.350;2023-05-07T06:37:00;13.07;;;11.67;;
1024;SDS011;501;48.214;11.350;2023-05-07T06:39:26;14.27;;;12.30;;
1024;SDS011;501;48.214;11.350;2023-05-07T06:41:52;13.37;;;12.07;;
1024;SDS011;501;48.214;11.350;2023-05-07T06:44:17;15.70;;;10.83;;
1024;SDS011;501;48.214;11.350;2023-05-07T06:46:43;10.90;;;9.83;;
1024;SDS011;501;48.214;11.350;2023-05-07T06:49:10;11.87;;;10.67;;
1024;SDS011;501;48.214;11.350;2023-05-07T06:51:36;12.20;;;11.00;;
1024;SDS011;501;48.214;11.350;2023-05-07T06:54:01;13.23;;;12.03;;
1024;SDS011;501;48.214;11.350;2023-05-07T06:56:29;11.03;;;9.97;;
1024;SDS011;501;48.214;11.350;2023-05-07T06:58:55;11.40;;;10.17;;
1024;SDS011;501;48.214;11.350;2023-05-07T07:01:20;12.20;;;11.00;;
1024;SDS011;501;48.214;11.350;2023-05-07T07:03:46;11.30;;;10.03;;
1024;SDS011;501;48.214;11.350;2023-05-07T07:06:12;11.23;;;10.13;;
1024;SDS011;501;48.214;11.350;2023-05-07T07:08:38;10.23;;;9.00;;
1024;SDS011;501;48.214;11.350;2023-05-07T07:11:07;11.37;;;10.17;;
1024;SDS011;501;48.214;11.350;2023-05-07T07:13:36;10.60;;;8.13;;
1024;SDS011;501;48.214;11.350;2023-05-07T07:16:02;12.87;;;11.03;;
1024;SDS011;501;48.214;11.350;2023-05-07T07:18:28;12.27;;;11.07;;
1024;SDS011;501;48.214;11.350;2023-05-07T07:20:54;11.30;;;9.83;;
1024;SDS011;501;48.214;11.350;2023-05-07T07:23:19;12.27;;;11.00;;
1024;SDS011;501;48.214;11.350;2023-05-07T07:25:48;13.93;;;11.33;;
1024;SDS011;501;48.214;11.350;2023-05-07T07:28:14;11.43;;;10.30;;
1024;SDS011;501;48.214;11.350;2023-05-07T07:30:39;11.60;;;9.83;;
1024;SDS011;501;48.214;11.350;2023-05-07T07:33:05;12.90;;;10.80;;
1024;SDS011;501;48.214;11.350;2023-05-07T07:35:34;14.50;;;10.63;;
1024;SDS011;501;48.214;11.350;2023-05-07T07:38:02;15.63;;;11.10;;
1024;SDS011;501;48.214;11.350;2023-05-07T07:40:28;12.53;;;10.30;;
1024;SDS011;501;48.214;11.350;2023-05-07T07:42:53;12.53;;;11.30;;
1024;SDS011;501;48.214;11.350;2023-05-07T07:45:19;11.23;;;10.13;;
1024;SDS011;501;48.214;11.350;2023-05-07T07:47:45;11.37;;;10.27;;
1024;SDS011;501;48.214;11.350;2023-05-07T07:50:11;10.67;;;9.57;;
1024;SDS011;501;48.214;11.350;2023-05-07T07:52:38;10.50;;;9.40;;
1024;SDS011;501;48.214;11.350;2023-05-07T07:55:03;10.20;;;8.70;;
1024;SDS011;501;48.214;11.350;2023-05-07T07:57:30;9.63;;;8.20;;
1024;SDS011;501;48.214;11.350;2023-05-07T07:59:55;8.37;;;7.57;;
1024;SDS011;501;48.214;11.350;2023-05-07T08:02:21;8.70;;;7.90;;
1024;SDS011;501;48.214;11.350;2023-05-07T08:04:47;11.00;;;8.40;;
1024;SDS011;501;48.214;11.350;2023-05-07T08:07:12;8.60;;;7.80;;
1024;SDS011;501;48.214;11.350;2023-05-07T08:09:38;7.67;;;6.87;;
1024;SDS011;501;48.214;11.350;2023-05-07T08:12:05;7.83;;;7.03;;
1024;SDS011;501;48.214;11.350;2023-05-07T08:14:31;6.30;;;5.80;;
1024;SDS011;501;48.214;11.350;2023-05-07T08:16:57;7.40;;;6.43;;
1024;SDS011;501;48.214;11.350;2023-05-07T08:19:22;7.10;;;6.40;;
1024;SDS011;501;48.214;11.350;2023-05-07T08:21:48;7.13;;;6.40;;
1024;SDS011;501;48.214;11.350;2023-05-07T08:24:14;6.23;;;5.67;;
1024;SDS011;501;48.214;11.350;2023-05-07T08:26:40;6.93;;;6.40;;
1024;SDS011;501;48.214;11.350;2023-05-07T08:29:06;8.20;;;6.20;;
1024;SDS011;501;48.214;11.350;2023-05-07T08:31:32;6.67;;;5.97;;
1024;SDS011;501;48.214;11.350;2023-05-07T08:33:58;5.87;;;5.37;;
1024;SDS011;501;48.214;11.350;2023-05-07T08:36:24;8.03;;;5.20;;
1024;SDS011;501;48.214;11.350;2023-05-07T08:38:50;6.40;;;5.80;;
1024;SDS011;501;48.214;11.350;2023-05-07T08:41:16;5.67;;;4.47;;
1024;SDS011;501;48.214;11.350;2023-05-07T08:43:42;4.80;;;4.40;;
1024;SDS011;501;48.214;11.350;2023-05-07T08:46:17;6.07;;;5.57;;
1024;SDS011;501;48.214;11.350;2023-05-07T08:48:50;6.43;;;5.10;;
1024;SDS011;501;48.214;11.350;2023-05-07T08:51:20;4.70;;;4.30;;
1024;SDS011;501;48.214;11.350;2023-05-07T08:53:47;4.80;;;4.40;;
1024;SDS011;501;48.214;11.350;2023-05-07T08:56:13;5.20;;;4.70;;
1024;SDS011;501;48.214;11.350;2023-05-07T08:58:43;6.00;;;5.40;;
1024;SDS011;501;48.214;11.350;2023-05-07T09:01:13;5.73;;;5.23;;
1024;SDS011;501;48.214;11.350;2023-05-07T09:03:39;6.13;;;4.10;;
1024;SDS011;501;48.214;11.350;2023-05-07T09:06:06;5.70;;;5.20;;
1024;SDS011;501;48.214;11.350;2023-05-07T09:08:35;5.23;;;4.47;;
1024;SDS011;501;48.214;11.350;2023-05-07T09:11:01;10.83;;;4.87;;
1024;SDS011;501;48.214;11.350;2023-05-07T09:13:28;6.50;;;5.20;;
1024;SDS011;501;48.214;11.350;2023-05-07T09:15:54;5.80;;;5.00;;
1024;SDS011;501;48.214;11.350;2023-05-07T09:18:20;6.20;;;5.70;;
1024;SDS011;501;48.214;11.350;2023-05-07T09:20:46;5.70;;;5.20;;
1024;SDS011;501;48.214;11.350;2023-05-07T09:23:12;7.50;;;6.80;;
1024;SDS011;501;48.214;11.350;2023-05-07T09:25:38;7.10;;;4.40;;
1024;SDS011;501;48.214;11.350;2023-05-07T09:28:04;5.23;;;4.47;;
1024;SDS011;501;48.214;11.350;2023-05-07T09:30:35;5.00;;;4.60;;
1024;SDS011;501;48.214;11.350;2023-05-07T09:33:02;4.57;;;4.17;;
1024;SDS011;501;48.214;11.350;2023-05-07T09:35:29;3.60;;;3.40;;
1024;SDS011;501;48.214;11.350;2023-05-07T09:37:59;4.63;;;3.60;;
1024;SDS011;501;48.214;11.350;2023-05-07T09:40:26;3.53;;;3.33;;
1024;SDS011;501;48.214;11.350;2023-05-07T09:42:54;4.17;;;3.13;;
1024;SDS011;501;48.214;11.350;2023-05-07T09:45:26;4.30;;;3.10;;
1024;SDS011;501;48.214;11.350;2023-05-07T09:47:57;4.70;;;4.30;;
1024;SDS011;501;48.214;11.350;2023-05-07T09:50:26;5.20;;;4.77;;
1024;SDS011;501;48.214;11.350;2023-05-07T09:52:56;5.40;;;3.73;;
1024;SDS011;501;48.214;11.350;2023-05-07T09:55:22;5.23;;;4.83;;
1024;SDS011;501;48.214;11.350;2023-05-07T09:57:52;7.07;;;5.03;;
1024;SDS011;501;48.214;11.350;2023-05-07T10:00:19;6.23;;;4.83;;
1024;SDS011;501;48.214;11.350;2023-05-07T10:02:49;7.60;;;5.10;;
1024;SDS011;501;48.214;11.350;2023-05-07T10:05:20;4.70;;;4.23;;
1024;SDS011;501;48.214;11.350;2023-05-07T10:07:46;5.03;;;4.40;;
1024;SDS011;501;48.214;11.350;2023-05-07T10:10:13;5.00;;;4.50;;
1024;SDS011;501;48.214;11.350;2023-05-07T10:12:40;4.40;;;4.00;;
1024;SDS011;501;48.214;11.350;2023-05-07T10:15:10;4.60;;;3.73;;
1024;SDS011;501;48.214;11.350;2023-05-07T10:17:39;3.70;;;3.40;;
1024;SDS011;501;48.214;11.350;2023-05-07T10:20:05;3.73;;;3.20;;
1024;SDS011;501;48.214;11.350;2023-05-07T10:22:32;4.17;;;3.77;;
1024;SDS011;501;48.214;11.350;2023-05-07T10:25:18;4.87;;;4.37;;
1024;SDS011;501;48.214;11.350;2023-05-07T10:27:46;3.63;;;3.00;;
1024;SDS011;501;48.214;11.350;2023-05-07T10:30:16;5.53;;;3.90;;
1024;SDS011;501;48.214;11.350;2023-05-07T10:33:05;4.10;;;3.47;;
1024;SDS011;501;48.214;11.350;2023-05-07T10:35:40;3.30;;;2.90;;
1024;SDS011;501;48.214;11.350;2023-05-07T10:38:08;4.07;;;3.77;;
1024;SDS011;501;48.214;11.350;2023-05-07T10:40:34;5.00;;;4.10;;
1024;SDS011;501;48.214;11.350;2023-05-07T10:43:01;4.70;;;4.07;;
1024;SDS011;501;48.214;11.350;2023-05-07T10:45:30;3.50;;;3.20;;
1024;SDS011;501;48.214;11.350;2023-05-07T10:48:06;3.37;;;3.07;;
1024;SDS011;501;48.214;11.350;2023-05-07T10:50:35;4.90;;;4.40;;
1024;SDS011;501;48.214;11.350;2023-05-07T10:55:43;4.30;;;3.10;;
1024;SDS011;501;48.214;11.350;2023-05-07T11:00:50;3.93;;;3.20;;
1024;SDS011;501;48.214;11.350;2023-05-07T11:03:21;3.47;;;3.17;;
1024;SDS011;501;48.214;11.350;2023-05-07T11:05:47;4.10;;;3.20;;
1024;SDS011;501;48.214;11.350;2023-05-07T11:11:42;5.70;;;3.90;;
1024;SDS011;501;48.214;11.350;2023-05-07T11:14:08;3.53;;;3.17;;
1024;SDS011;501;48.214;11.350;2023-05-07T11:16:34;4.53;;;3.00;;
1024;SDS011;501;48.214;11.350;2023-05-07T11:19:02;5.23;;;3.00;;
1024;SDS011;501;48.214;11.350;2023-05-07T11:21:32;3.17;;;2.97;;
1024;SDS011;501;48.214;11.350;2023-05-07T11:24:08;3.40;;;3.10;;
1024;SDS011;501;48.214;11.350;2023-05-07T11:26:42;3.33;;;3.00;;
1024;SDS011;501;48.214;11.350;2023-05-07T11:29:14;5.00;;;2.87;;
1024;SDS011;501;48.214;11.350;2023-05-07T11:31:41;3.20;;;2.90;;
1024;SDS011;501;48.214;11.350;2023-05-07T11:34:07;3.17;;;2.90;;
1024;SDS011;501;48.214;11.350;2023-05-07T11:36:33;4.13;;;2.80;;
1024;SDS011;501;48.214;11.350;2023-05-07T11:38:59;2.70;;;2.50;;
1024;SDS011;501;48.214;11.350;2023-05-07T11:41:35;3.47;;;3.20;;
1024;SDS011;501;48.214;11.350;2023-05-07T11:44:02;2.80;;;2.60;;
1024;SDS011;501;48.214;11.350;2023-05-07T11:46:28;4.10;;;2.93;;
1024;SDS011;501;48.214;11.350;2023-05-07T11:48:54;2.70;;;2.50;;
1024;SDS011;501;48.214;11.350;2023-05-07T11:51:21;2.90;;;2.70;;
1024;SDS011;501;48.214;11.350;2023-05-07T11:53:50;3.03;;;2.73;;
1024;SDS011;501;48.214;11.350;2023-05-07T11:56:17;2.47;;;2.27;;
1024;SDS011;501;48.214;11.350;2023-05-07T11:58:44;2.53;;;2.33;;
1024;SDS011;501;48.214;11.350;2023-05-07T12:01:10;2.47;;;2.27;;
1024;SDS011;501;48.214;11.350;2023-05-07T12:03:40;4.27;;;2.87;;
1024;SDS011;501;48.214;11.350;2023-05-07T12:06:13;2.80;;;2.03;;
1024;SDS011;501;48.214;11.350;2023-05-07T12:08:40;2.13;;;2.00;;
1024;SDS011;501;48.214;11.350;2023-05-07T12:11:07;4.27;;;2.43;;
1024;SDS011;501;48.214;11.350;2023-05-07T12:13:36;2.00;;;1.90;;
1024;SDS011;501;48.214;11.350;2023-05-07T12:16:02;2.50;;;2.30;;
1024;SDS011;501;48.214;11.350;2023-05-07T12:18:30;2.57;;;2.37;;
1024;SDS011;501;48.214;11.350;2023-05-07T12:20:56;2.77;;;2.57;;
1024;SDS011;501;48.214;11.350;2023-05-07T12:23:22;2.73;;;1.93;;
1024;SDS011;501;48.214;11.350;2023-05-07T12:25:48;1.93;;;1.83;;
1024;SDS011;501;48.214;11.350;2023-05-07T12:28:14;2.33;;;2.13;;
1024;SDS011;501;48.214;11.350;2023-05-07T12:30:45;3.00;;;2.80;;
1024;SDS011;501;48.214;11.350;2023-05-07T12:33:16;2.13;;;2.03;;
1024;SDS011;501;48.214;11.350;2023-05-07T12:35:43;3.03;;;2.57;;
1024;SDS011;501;48.214;11.350;2023-05-07T12:38:16;3.77;;;3.47;;
1024;SDS011;501;48.214;11.350;2023-05-07T12:40:43;17.27;;;4.20;;
1024;SDS011;501;48.214;11.350;2023-05-07T12:43:26;9.30;;;3.30;;
1024;SDS011;501;48.214;11.350;2023-05-07T12:45:56;31.53;;;6.67;;
1024;SDS011;501;48.214;11.350;2023-05-07T12:48:25;3.90;;;2.33;;
1024;SDS011;501;48.214;11.350;2023-05-07T12:50:55;18.73;;;5.60;;
1024;SDS011;501;48.214;11.350;2023-05-07T12:53:22;5.13;;;2.60;;
1024;SDS011;501;48.214;11.350;2023-05-07T12:55:53;2.43;;;2.23;;
1024;SDS011;501;48.214;11.350;2023-05-07T12:58:30;15.23;;;3.50;;
1024;SDS011;501;48.214;11.350;2023-05-07T13:01:00;3.33;;;2.53;;
1024;SDS011;501;48.214;11.350;2023-05-07T13:03:34;3.40;;;2.40;;
1024;SDS011;501;48.214;11.350;2023-05-07T13:06:01;2.90;;;2.57;;
1024;SDS011;501;48.214;11.350;2023-05-07T13:08:40;5.97;;;2.70;;
1024;SDS011;501;48.214;11.350;2023-05-07T13:11:10;5.37;;;2.40;;
1024;SDS011;501;48.214;11.350;2023-05-07T13:13:36;2.33;;;2.13;;
1024;SDS011;501;48.214;11.350;2023-05-07T13:16:04;2.17;;;2.00;;
1024;SDS011;501;48.214;11.350;2023-05-07T13:18:31;2.37;;;2.20;;
1024;SDS011;501;48.214;11.350;2023-05-07T13:20:57;2.33;;;2.13;;
1024;SDS011;501;48.214;11.350;2023-05-07T13:23:25;2.83;;;2.10;;
1024;SDS011;501;48.214;11.350;2023-05-07T13:25:51;2.17;;;1.97;;
1024;SDS011;501;48.214;11.350;2023-05-07T13:28:19;3.13;;;2.73;;
1024;SDS011;501;48.214;11.350;2023-05-07T13:30:45;2.17;;;1.97;;
1024;SDS011;501;48.214;11.350;2023-05-07T13:33:11;2.00;;;1.90;;
1024;SDS011;501;48.214;11.350;2023-05-07T13:35:37;2.30;;;2.10;;
1024;SDS011;501;48.214;11.350;2023-05-07T13:38:03;4.07;;;2.40;;
1024;SDS011;501;48.214;11.350;2023-05-07T13:40:29;2.10;;;2.00;;
1024;SDS011;501;48.214;11.350;2023-05-07T13:42:56;5.50;;;2.13;;
1024;SDS011;501;48.214;11.350;2023-05-07T13:45:23;2.50;;;2.30;;
1024;SDS011;501;48.214;11.350;2023-05-07T13:47:50;3.20;;;2.50;;
1024;SDS011;501;48.214;11.350;2023-05-07T13:50:16;5.00;;;2.07;;
1024;SDS011;501;48.214;11.350;2023-05-07T13:52:42;2.50;;;2.33;;
1024;SDS011;501;48.214;11.350;2023-05-07T13:55:15;3.27;;;2.30;;
1024;SDS011;501;48.214;11.350;2023-05-07T13:57:54;2.37;;;2.10;;
1024;SDS011;501;48.214;11.350;2023-05-07T14:00:21;2.73;;;2.53;;
1024;SDS011;501;48.214;11.350;2023-05-07T14:02:47;2.70;;;2.50;;
1024;SDS011;501;48.214;11.350;2023-05-07T14:05:13;3.33;;;2.57;;
1024;SDS011;501;48.214;11.350;2023-05-07T14:07:38;7.27;;;3.03;;
1024;SDS011;501;48.214;11.350;2023-05-07T14:10:04;3.50;;;2.53;;
1024;SDS011;501;48.214;11.350;2023-05-07T14:12:31;2.83;;;2.53;;
1024;SDS011;501;48.214;11.350;2023-05-07T14:14:57;4.43;;;3.53;;
1024;SDS011;501;48.214;11.350;2023-05-07T14:17:23;3.20;;;2.90;;
1024;SDS011;501;48.214;11.350;2023-05-07T14:19:51;3.10;;;2.80;;
1024;SDS011;501;48.214;11.350;2023-05-07T14:22:19;2.97;;;2.73;;
1024;SDS011;501;48.214;11.350;2023-05-07T14:24:45;4.63;;;3.60;;
1024;SDS011;501;48.214;11.350;2023-05-07T14:27:11;2.77;;;2.50;;
1024;SDS011;501;48.214;11.350;2023-05-07T14:29:36;3.30;;;2.70;;
1024;SDS011;501;48.214;11.350;2023-05-07T14:32:02;3.13;;;2.93;;
1024;SDS011;501;48.214;11.350;2023-05-07T14:34:28;2.90;;;2.60;;
1024;SDS011;501;48.214;11.350;2023-05-07T14:36:54;3.00;;;2.80;;
1024;SDS011;501;48.214;11.350;2023-05-07T14:39:20;3.20;;;2.97;;
1024;SDS011;501;48.214;11.350;2023-05-07T14:41:46;4.33;;;2.80;;
1024;SDS011;501;48.214;11.350;2023-05-07T14:44:12;3.07;;;2.80;;
1024;SDS011;501;48.214;11.350;2023-05-07T14:46:37;3.00;;;2.70;;
1024;SDS011;501;48.214;11.350;2023-05-07T14:49:03;2.90;;;2.70;;
1024;SDS011;501;48.214;11.350;2023-05-07T14:51:29;2.93;;;2.73;;
1024;SDS011;501;48.214;11.350;2023-05-07T14:53:55;3.13;;;2.87;;
1024;SDS011;501;48.214;11.350;2023-05-07T14:56:21;3.43;;;3.10;;
1024;SDS011;501;48.214;11.350;2023-05-07T14:58:47;6.13;;;3.20;;
1024;SDS011;501;48.214;11.350;2023-05-07T15:01:15;4.10;;;2.50;;
1024;SDS011;501;48.214;11.350;2023-05-07T15:03:41;3.47;;;3.00;;
1024;SDS011;501;48.214;11.350;2023-05-07T15:06:07;2.93;;;2.73;;
1024;SDS011;501;48.214;11.350;2023-05-07T15:08:32;2.83;;;2.63;;
1024;SDS011;501;48.214;11.350;2023-05-07T15:10:58;4.30;;;3.40;;
1024;SDS011;501;48.214;11.350;2023-05-07T15:13:24;2.90;;;2.70;;